createdAt,value
2022-12-08T00:01:44.305Z,2.07
2022-12-08T00:04:12.218Z,3.00
2022-12-08T00:06:40.360Z,2.50
2022-12-08T00:09:10.204Z,2.80
2022-12-08T00:11:37.432Z,2.83
2022-12-08T00:14:04.760Z,3.17
2022-12-08T00:16:33.711Z,2.20
2022-12-08T00:19:00.969Z,2.33
2022-12-08T00:21:29.249Z,2.20
2022-12-08T00:23:56.710Z,2.40
2022-12-08T00:26:24.265Z,2.50
2022-12-08T00:28:51.456Z,2.10
2022-12-08T00:31:18.736Z,2.87
2022-12-08T00:33:47.401Z,2.57
2022-12-08T00:36:15.266Z,3.20
2022-12-08T00:41:37.887Z,2.47
2022-12-08T00:44:05.600Z,2.70
2022-12-08T00:46:32.912Z,2.63
2022-12-08T00:49:02.021Z,2.43
2022-12-08T00:51:29.450Z,2.50
2022-12-08T00:53:56.746Z,2.93
2022-12-08T00:56:54.945Z,2.80
2022-12-08T00:59:41.659Z,2.20
2022-12-08T01:02:08.983Z,2.20
2022-12-08T01:04:40.249Z,2.47
2022-12-08T01:07:07.898Z,2.20
2022-12-08T01:09:35.628Z,2.50
2022-12-08T01:12:02.976Z,2.23
2022-12-08T01:14:49.603Z,2.33
2022-12-08T01:17:17.259Z,2.33
2022-12-08T01:19:45.828Z,2.23
2022-12-08T01:22:13.013Z,2.10
2022-12-08T01:28:27.524Z,1.87
2022-12-08T01:30:54.921Z,2.13
2022-12-08T01:33:22.259Z,1.90
2022-12-08T01:35:50.910Z,2.03
2022-12-08T01:38:18.204Z,2.23
2022-12-08T01:40:45.765Z,2.30
2022-12-08T01:46:06.409Z,1.97
2022-12-08T01:48:33.979Z,2.53
2022-12-08T01:51:12.121Z,1.90
2022-12-08T01:53:39.729Z,2.03
2022-12-08T01:56:08.852Z,2.23
2022-12-08T01:58:49.335Z,1.90
2022-12-08T02:01:29.143Z,2.10
2022-12-08T02:04:15.280Z,2.27
2022-12-08T02:06:45.687Z,2.27
2022-12-08T02:09:13.408Z,2.37
2022-12-08T02:11:40.783Z,2.60
2022-12-08T02:14:09.262Z,1.67
2022-12-08T02:16:40.700Z,2.03
2022-12-08T02:19:34.024Z,2.37
2022-12-08T02:22:05.577Z,2.37
2022-12-08T02:24:38.023Z,2.00
2022-12-08T02:27:23.367Z,2.70
2022-12-08T02:29:59.024Z,2.40
2022-12-08T02:32:38.934Z,2.10
2022-12-08T02:35:18.689Z,2.17
2022-12-08T02:37:49.158Z,1.70
2022-12-08T02:40:19.940Z,1.90
2022-12-08T02:42:49.247Z,2.00
2022-12-08T02:52:34.277Z,2.20
2022-12-08T02:55:04.225Z,1.90
2022-12-08T02:57:38.280Z,1.70
2022-12-08T03:00:10.141Z,2.30
2022-12-08T03:05:29.835Z,1.80
2022-12-08T03:08:01.432Z,1.50
2022-12-08T03:10:33.669Z,1.90
2022-12-08T03:13:03.231Z,2.10
2022-12-08T03:15:32.084Z,2.30
2022-12-08T03:18:21.914Z,2.17
2022-12-08T03:21:14.028Z,2.13
2022-12-08T03:23:56.887Z,2.77
2022-12-08T03:26:26.884Z,2.60
2022-12-08T03:28:54.466Z,2.13
2022-12-08T03:31:22.569Z,2.13
2022-12-08T03:33:52.371Z,2.23
2022-12-08T03:36:20.140Z,2.00
2022-12-08T03:38:47.855Z,1.73
2022-12-08T03:41:15.499Z,2.07
2022-12-08T03:43:44.394Z,2.30
2022-12-08T03:46:11.682Z,1.73
2022-12-08T03:48:39.202Z,1.97
2022-12-08T03:51:06.505Z,2.30
2022-12-08T03:57:27.711Z,2.20
2022-12-08T03:59:56.732Z,2.53
2022-12-08T04:02:24.435Z,1.70
2022-12-08T04:04:51.883Z,2.23
2022-12-08T04:07:19.127Z,2.00
2022-12-08T04:09:46.426Z,1.73
2022-12-08T04:12:29.064Z,2.00
2022-12-08T04:14:57.621Z,2.17
2022-12-08T04:17:24.903Z,1.90
2022-12-08T04:19:52.145Z,1.90
2022-12-08T04:28:54.987Z,1.60
2022-12-08T04:31:23.646Z,2.70
2022-12-08T04:33:50.922Z,2.10
2022-12-08T04:36:18.136Z,2.10
2022-12-08T04:38:45.442Z,1.93
2022-12-08T04:41:12.818Z,1.67
2022-12-08T04:43:40.236Z,2.00
2022-12-08T04:46:07.907Z,2.37
2022-12-08T04:48:37.755Z,1.50
2022-12-08T04:51:05.122Z,2.40
2022-12-08T04:53:52.758Z,1.97
2022-12-08T04:56:40.141Z,1.90
2022-12-08T04:59:07.591Z,1.90
2022-12-08T05:01:35.045Z,2.10
2022-12-08T05:04:03.860Z,2.23
2022-12-08T05:06:31.283Z,1.90
2022-12-08T05:08:58.887Z,1.60
2022-12-08T05:14:18.615Z,1.87
2022-12-08T05:16:46.692Z,1.70
2022-12-08T05:19:16.238Z,1.50
2022-12-08T05:21:43.787Z,1.87
2022-12-08T05:24:11.046Z,1.97
2022-12-08T05:26:47.444Z,2.00
2022-12-08T05:29:33.340Z,2.67
2022-12-08T05:32:05.999Z,2.20
2022-12-08T05:34:35.255Z,1.83
2022-12-08T05:37:02.633Z,1.97
2022-12-08T05:39:29.845Z,2.03
2022-12-08T05:42:02.140Z,1.83
2022-12-08T05:44:29.762Z,2.00
2022-12-08T05:46:57.096Z,2.70
2022-12-08T05:49:24.730Z,1.87
2022-12-08T05:51:53.402Z,1.90
2022-12-08T05:54:20.718Z,1.90
2022-12-08T05:59:30.734Z,2.03
2022-12-08T06:01:58.111Z,1.57
2022-12-08T06:04:25.478Z,1.90
2022-12-08T06:10:38.847Z,1.97
2022-12-08T06:13:06.228Z,1.80
2022-12-08T06:15:34.673Z,1.80
2022-12-08T06:18:01.856Z,2.57
2022-12-08T06:20:29.125Z,2.07
2022-12-08T06:22:56.396Z,2.30
2022-12-08T06:28:33.796Z,1.83
2022-12-08T06:31:01.375Z,2.23
2022-12-08T06:33:28.947Z,2.27
2022-12-08T06:35:56.583Z,2.20
2022-12-08T06:38:24.130Z,2.40
2022-12-08T06:41:11.741Z,2.27
2022-12-08T06:43:53.182Z,1.93
2022-12-08T06:46:39.783Z,1.93
2022-12-08T06:49:07.329Z,2.30
2022-12-08T06:51:34.517Z,1.97
2022-12-08T06:54:02.224Z,2.30
2022-12-08T06:56:30.623Z,1.93
2022-12-08T06:58:59.232Z,2.17
2022-12-08T07:01:26.564Z,2.57
2022-12-08T07:03:53.900Z,2.00
2022-12-08T07:06:22.477Z,1.97
2022-12-08T07:08:49.775Z,1.80
2022-12-08T07:14:01.578Z,2.00
2022-12-08T07:16:29.025Z,1.70
2022-12-08T07:18:56.682Z,2.20
2022-12-08T07:25:19.597Z,2.07
2022-12-08T07:27:47.679Z,1.83
2022-12-08T07:30:17.004Z,1.83
2022-12-08T07:32:44.386Z,1.87
2022-12-08T07:35:11.910Z,1.90
2022-12-08T07:37:39.182Z,1.70
2022-12-08T07:40:07.600Z,2.03
2022-12-08T07:42:54.848Z,1.87
2022-12-08T07:45:28.325Z,1.50
2022-12-08T07:47:58.640Z,2.03
2022-12-08T07:50:46.061Z,2.00
2022-12-08T07:59:31.283Z,2.67
2022-12-08T08:02:22.314Z,2.47
2022-12-08T08:04:51.190Z,2.30
2022-12-08T08:07:18.726Z,2.20
2022-12-08T08:09:46.039Z,2.30
2022-12-08T08:15:00.805Z,2.00
2022-12-08T08:17:30.022Z,2.83
2022-12-08T08:19:57.786Z,3.40
2022-12-08T08:22:25.367Z,3.27
2022-12-08T08:24:52.787Z,2.30
2022-12-08T08:27:20.360Z,2.10
2022-12-08T08:29:47.647Z,2.13
2022-12-08T08:32:14.947Z,2.03
2022-12-08T08:34:44.125Z,1.77
2022-12-08T08:37:11.819Z,1.80
2022-12-08T08:39:39.419Z,2.23
2022-12-08T08:42:06.775Z,1.87
2022-12-08T08:44:37.159Z,2.00
2022-12-08T08:47:04.518Z,1.83
2022-12-08T08:49:32.116Z,1.90
2022-12-08T08:52:03.581Z,1.60
2022-12-08T08:54:33.942Z,1.50
2022-12-08T08:57:01.878Z,1.60
2022-12-08T08:59:29.336Z,1.60
2022-12-08T09:01:59.928Z,1.60
2022-12-08T09:04:27.926Z,1.80
2022-12-08T09:06:55.279Z,1.93
2022-12-08T09:09:23.971Z,1.90
2022-12-08T09:11:51.247Z,1.60
2022-12-08T09:14:18.695Z,2.00
2022-12-08T09:16:45.984Z,1.60
2022-12-08T09:19:13.340Z,1.70
2022-12-08T09:21:40.679Z,1.60
2022-12-08T09:26:45.408Z,1.50
2022-12-08T09:29:13.191Z,1.80
2022-12-08T09:31:43.017Z,1.50
2022-12-08T09:34:11.370Z,1.83
2022-12-08T09:36:38.626Z,1.80
2022-12-08T09:39:06.120Z,1.70
2022-12-08T09:41:40.352Z,1.90
2022-12-08T09:44:22.532Z,2.10
2022-12-08T09:46:51.558Z,1.70
2022-12-08T09:49:21.092Z,1.70
2022-12-08T09:51:50.183Z,2.07
2022-12-08T09:54:19.247Z,1.73
2022-12-08T09:56:48.205Z,1.60
2022-12-08T09:59:23.951Z,1.80
2022-12-08T10:01:55.465Z,1.80
2022-12-08T10:04:26.364Z,1.50
2022-12-08T10:06:59.055Z,1.93
2022-12-08T10:09:29.597Z,2.20
2022-12-08T10:12:00.739Z,2.23
2022-12-08T10:17:16.249Z,1.93
2022-12-08T10:19:43.909Z,1.80
2022-12-08T10:22:15.346Z,1.90
2022-12-08T10:24:44.718Z,2.20
2022-12-08T10:27:13.043Z,1.80
2022-12-08T10:29:40.511Z,1.80
2022-12-08T10:32:13.383Z,1.60
2022-12-08T10:34:56.523Z,1.80
2022-12-08T10:37:25.344Z,1.60
2022-12-08T10:39:59.619Z,1.90
2022-12-08T10:42:30.308Z,1.83
2022-12-08T10:44:59.637Z,2.00
2022-12-08T10:47:28.037Z,1.97
2022-12-08T10:50:07.609Z,2.07
2022-12-08T10:52:40.030Z,2.30
2022-12-08T10:55:14.429Z,1.73
2022-12-08T10:57:41.949Z,1.87
2022-12-08T11:00:14.215Z,1.80
2022-12-08T11:02:54.071Z,1.90
2022-12-08T11:05:22.294Z,2.00
2022-12-08T11:07:52.619Z,2.00
2022-12-08T11:10:28.834Z,1.70
2022-12-08T11:13:00.652Z,1.90
2022-12-08T11:15:32.668Z,2.00
2022-12-08T11:18:01.090Z,2.00
2022-12-08T11:20:28.663Z,1.50
2022-12-08T11:22:57.528Z,2.03
2022-12-08T11:25:25.569Z,1.87
2022-12-08T11:27:53.633Z,2.10
2022-12-08T11:33:15.186Z,1.80
2022-12-08T11:35:44.490Z,1.77
2022-12-08T11:38:21.695Z,1.93
2022-12-08T11:40:51.012Z,1.90
2022-12-08T11:43:19.944Z,2.10
2022-12-08T11:45:50.883Z,1.80
2022-12-08T11:48:19.203Z,2.03
2022-12-08T11:50:48.518Z,2.10
2022-12-08T11:53:21.233Z,2.30
2022-12-08T11:58:35.893Z,2.00
2022-12-08T12:01:03.671Z,2.10
2022-12-08T12:03:34.527Z,1.93
2022-12-08T12:06:54.264Z,1.70
2022-12-08T12:09:26.737Z,1.70
2022-12-08T12:12:12.946Z,2.40
2022-12-08T12:15:00.169Z,1.90
2022-12-08T12:17:33.317Z,1.90
2022-12-08T12:20:04.317Z,2.10
2022-12-08T12:22:33.867Z,1.97
2022-12-08T12:25:03.272Z,2.40
2022-12-08T12:27:32.289Z,2.60
2022-12-08T12:32:44.044Z,3.60
2022-12-08T12:35:16.204Z,2.23
2022-12-08T12:37:43.813Z,2.83
2022-12-08T12:40:18.160Z,2.40
2022-12-08T12:42:46.939Z,2.20
2022-12-08T12:45:33.235Z,2.47
2022-12-08T12:51:45.505Z,2.50
2022-12-08T12:54:22.398Z,3.00
2022-12-08T12:56:52.645Z,2.73
2022-12-08T12:59:22.721Z,2.63
2022-12-08T13:01:52.723Z,2.20
2022-12-08T13:04:20.191Z,2.47
2022-12-08T13:06:49.229Z,2.30
2022-12-08T13:09:20.927Z,2.03
2022-12-08T13:11:49.957Z,2.10
2022-12-08T13:14:31.814Z,2.20
2022-12-08T13:16:59.794Z,2.67
2022-12-08T13:19:30.179Z,2.30
2022-12-08T13:21:57.481Z,2.10
2022-12-08T13:24:29.220Z,2.37
2022-12-08T13:27:11.524Z,1.97
2022-12-08T13:29:40.552Z,2.43
2022-12-08T13:33:09.415Z,2.33
2022-12-08T13:35:24.210Z,1.90
2022-12-08T13:37:55.162Z,1.83
2022-12-08T13:40:24.721Z,2.00
2022-12-08T13:42:58.204Z,2.00
2022-12-08T13:46:18.337Z,1.60
2022-12-08T13:48:42.239Z,1.93
2022-12-08T13:57:10.565Z,1.73
2022-12-08T13:59:35.605Z,2.17
2022-12-08T14:02:16.677Z,1.80
2022-12-08T14:05:16.889Z,1.93
2022-12-08T14:07:33.262Z,2.20
2022-12-08T14:10:00.845Z,2.07
2022-12-08T14:12:28.802Z,2.00
2022-12-08T14:15:03.821Z,1.90
2022-12-08T14:17:33.601Z,1.90
2022-12-08T14:20:01.852Z,2.00
2022-12-08T14:22:33.696Z,2.20
2022-12-08T14:25:00.980Z,1.90
2022-12-08T14:27:32.902Z,1.87
2022-12-08T14:30:01.534Z,2.57
2022-12-08T14:32:30.186Z,2.37
2022-12-08T14:35:00.329Z,2.00
2022-12-08T14:37:29.065Z,2.83
2022-12-08T14:39:59.068Z,2.03
2022-12-08T14:42:27.169Z,2.77
2022-12-08T14:45:02.515Z,2.40
2022-12-08T14:47:30.948Z,2.30
2022-12-08T14:49:59.553Z,1.90
2022-12-08T14:52:27.336Z,1.83
2022-12-08T14:54:54.709Z,2.37
2022-12-08T14:57:22.082Z,2.10
2022-12-08T14:59:50.002Z,2.03
2022-12-08T15:02:28.358Z,1.80
2022-12-08T15:04:58.159Z,1.70
2022-12-08T15:07:28.648Z,1.90
2022-12-08T15:10:19.945Z,1.80
2022-12-08T15:12:57.232Z,2.13
2022-12-08T15:15:24.810Z,2.20
2022-12-08T15:17:52.837Z,2.20
2022-12-08T15:20:33.137Z,1.80
2022-12-08T15:23:03.864Z,2.00
2022-12-08T15:25:31.230Z,1.80
2022-12-08T15:27:59.993Z,2.33
2022-12-08T15:30:27.217Z,1.70
2022-12-08T15:32:54.422Z,2.20
2022-12-08T15:35:21.698Z,2.00
2022-12-08T15:37:48.925Z,2.40
2022-12-08T15:40:18.544Z,2.37
2022-12-08T15:42:45.888Z,2.87
2022-12-08T15:45:13.888Z,1.77
2022-12-08T15:47:41.232Z,2.93
2022-12-08T15:52:51.580Z,1.90
2022-12-08T15:55:21.037Z,2.30
2022-12-08T15:58:51.730Z,2.80
2022-12-08T16:00:54.492Z,3.67
2022-12-08T16:10:01.109Z,3.03
2022-12-08T16:12:56.901Z,2.40
2022-12-08T16:18:05.101Z,2.37
2022-12-08T16:21:06.055Z,2.10
2022-12-08T16:23:41.769Z,2.37
2022-12-08T16:29:00.540Z,2.73
2022-12-08T16:31:27.873Z,3.10
2022-12-08T16:33:55.146Z,2.50
2022-12-08T16:36:22.400Z,2.37
2022-12-08T16:38:49.756Z,2.47
2022-12-08T16:41:17.855Z,2.33
2022-12-08T16:43:45.091Z,2.07
2022-12-08T16:46:19.664Z,2.70
2022-12-08T16:48:47.438Z,2.40
2022-12-08T16:51:23.404Z,2.67
2022-12-08T16:53:54.066Z,3.03
2022-12-08T16:56:22.741Z,2.77
2022-12-08T16:58:51.365Z,2.60
2022-12-08T17:01:20.200Z,2.90
2022-12-08T17:04:07.089Z,2.23
2022-12-08T17:06:34.979Z,2.67
2022-12-08T17:09:02.239Z,2.70
2022-12-08T17:11:29.485Z,2.70
2022-12-08T17:13:56.736Z,2.23
2022-12-08T17:16:25.712Z,2.50
2022-12-08T17:18:53.290Z,2.47
2022-12-08T17:21:20.907Z,2.00
2022-12-08T17:23:48.184Z,2.90
2022-12-08T17:26:15.539Z,2.30
2022-12-08T17:31:32.608Z,3.27
2022-12-08T17:34:00.204Z,2.60
2022-12-08T17:36:27.556Z,2.20
2022-12-08T17:38:54.972Z,2.90
2022-12-08T17:41:22.287Z,2.40
2022-12-08T17:43:49.630Z,3.70
2022-12-08T17:46:17.987Z,2.47
2022-12-08T17:48:46.715Z,2.67
2022-12-08T17:51:14.079Z,2.23
2022-12-08T17:53:41.380Z,2.80
2022-12-08T17:56:14.799Z,2.97
2022-12-08T17:58:43.229Z,2.80
2022-12-08T18:03:47.799Z,2.70
2022-12-08T18:06:15.186Z,2.73
2022-12-08T18:08:42.436Z,2.80
2022-12-08T18:11:13.445Z,2.67
2022-12-08T18:13:40.798Z,2.93
2022-12-08T18:16:08.372Z,2.60
2022-12-08T18:18:35.622Z,3.00
2022-12-08T18:21:04.502Z,2.53
2022-12-08T18:23:31.991Z,2.60
2022-12-08T18:25:59.418Z,2.10
2022-12-08T18:28:26.693Z,2.63
2022-12-08T18:30:53.930Z,3.23
2022-12-08T18:33:21.177Z,2.93
2022-12-08T18:35:48.429Z,2.80
2022-12-08T18:38:17.424Z,2.60
2022-12-08T18:40:44.637Z,2.20
2022-12-08T18:43:11.855Z,2.87
2022-12-08T18:45:39.126Z,3.40
2022-12-08T18:48:08.609Z,2.90
2022-12-08T18:50:36.004Z,2.93
2022-12-08T18:53:03.350Z,2.40
2022-12-08T18:55:32.028Z,2.73
2022-12-08T18:57:59.323Z,2.57
2022-12-08T19:00:26.525Z,2.43
2022-12-08T19:02:53.846Z,3.03
2022-12-08T19:05:21.273Z,2.73
2022-12-08T19:07:48.787Z,2.70
2022-12-08T19:10:16.177Z,2.57
2022-12-08T19:12:44.849Z,3.17
2022-12-08T19:15:12.283Z,2.87
2022-12-08T19:17:39.549Z,2.60
2022-12-08T19:20:07.879Z,2.90
2022-12-08T19:22:35.580Z,2.13
2022-12-08T19:25:02.906Z,2.90
2022-12-08T19:27:30.349Z,3.20
2022-12-08T19:29:59.007Z,2.70
2022-12-08T19:32:26.314Z,2.53
2022-12-08T19:34:53.545Z,2.40
2022-12-08T19:37:20.771Z,2.10
2022-12-08T19:39:48.155Z,2.53
2022-12-08T19:42:16.211Z,2.63
2022-12-08T19:44:43.469Z,2.80
2022-12-08T19:47:12.309Z,2.73
2022-12-08T19:49:39.935Z,3.27
2022-12-08T19:52:07.469Z,2.80
2022-12-08T19:54:35.148Z,3.43
2022-12-08T19:57:02.793Z,4.33
2022-12-08T19:59:30.078Z,3.57
2022-12-08T20:01:57.589Z,3.87
2022-12-08T20:04:27.564Z,3.87
2022-12-08T20:06:55.674Z,3.70
2022-12-08T20:09:23.026Z,4.03
2022-12-08T20:11:50.371Z,3.67
2022-12-08T20:14:18.082Z,4.67
2022-12-08T20:16:45.462Z,4.13
2022-12-08T20:19:12.731Z,5.00
2022-12-08T20:21:41.559Z,4.07
2022-12-08T20:24:08.911Z,5.77
2022-12-08T20:26:36.297Z,13.80
2022-12-08T20:29:03.651Z,4.70
2022-12-08T20:31:31.854Z,4.13
2022-12-08T20:33:59.122Z,3.73
2022-12-08T20:36:26.441Z,3.70
2022-12-08T20:38:55.422Z,3.97
2022-12-08T20:41:23.203Z,3.30
2022-12-08T20:43:51.013Z,3.43
2022-12-08T20:46:18.691Z,4.20
2022-12-08T20:48:46.100Z,4.70
2022-12-08T20:51:14.227Z,4.77
2022-12-08T20:53:41.573Z,4.80
2022-12-08T20:56:14.014Z,5.60
2022-12-08T20:58:41.498Z,4.70
2022-12-08T21:01:09.530Z,6.07
2022-12-08T21:03:36.944Z,5.80
2022-12-08T21:06:04.492Z,5.80
2022-12-08T21:08:32.173Z,6.07
2022-12-08T21:10:59.569Z,5.63
2022-12-08T21:13:28.240Z,5.70
2022-12-08T21:15:55.548Z,6.97
2022-12-08T21:18:39.503Z,8.47
2022-12-08T21:21:10.630Z,7.03
2022-12-08T21:23:38.074Z,7.80
2022-12-08T21:26:10.765Z,7.03
2022-12-08T21:28:39.751Z,6.10
2022-12-08T21:31:07.817Z,6.27
2022-12-08T21:33:35.457Z,5.87
2022-12-08T21:36:03.528Z,6.30
2022-12-08T21:38:31.238Z,7.13
2022-12-08T21:41:02.015Z,6.53
2022-12-08T21:43:34.819Z,6.43
2022-12-08T21:46:03.490Z,7.20
2022-12-08T21:48:31.061Z,7.30
2022-12-08T21:51:03.586Z,7.50
2022-12-08T21:53:30.885Z,6.70
2022-12-08T21:55:58.224Z,7.70
2022-12-08T21:58:25.633Z,6.63
2022-12-08T22:00:52.947Z,6.37
2022-12-08T22:03:21.922Z,6.80
2022-12-08T22:05:49.640Z,6.47
2022-12-08T22:08:17.013Z,7.10
2022-12-08T22:10:47.411Z,6.70
2022-12-08T22:13:14.946Z,7.13
2022-12-08T22:15:42.244Z,7.63
2022-12-08T22:18:09.730Z,6.93
2022-12-08T22:20:43.862Z,6.70
2022-12-08T22:23:12.183Z,6.47
2022-12-08T22:25:39.490Z,5.77
2022-12-08T22:28:07.205Z,6.27
2022-12-08T22:30:39.027Z,7.10
2022-12-08T22:33:06.868Z,6.70
2022-12-08T22:38:25.064Z,6.40
2022-12-08T22:40:53.049Z,6.67
2022-12-08T22:43:20.340Z,6.23
2022-12-08T22:49:43.460Z,6.70
2022-12-08T22:52:10.894Z,6.27
2022-12-08T22:54:39.538Z,7.50
2022-12-08T22:57:06.764Z,6.93
2022-12-08T22:59:34.117Z,7.73
2022-12-08T23:02:01.626Z,7.73
2022-12-08T23:07:39.743Z,7.83
2022-12-08T23:10:10.547Z,8.17
2022-12-08T23:12:38.149Z,6.17
2022-12-08T23:21:51.351Z,10.83
2022-12-08T23:24:19.043Z,10.83
2022-12-08T23:26:47.827Z,3.53
2022-12-08T23:29:15.496Z,9.37
2022-12-08T23:31:43.347Z,8.60
2022-12-08T23:34:11.207Z,7.33
2022-12-08T23:36:38.582Z,9.93
2022-12-08T23:39:06.103Z,9.40
2022-12-08T23:41:33.709Z,9.23
2022-12-08T23:44:02.494Z,6.13
2022-12-08T23:46:32.937Z,9.13
2022-12-08T23:49:00.339Z,11.13
2022-12-08T23:51:27.971Z,11.33
2022-12-08T23:53:55.303Z,10.30
2022-12-08T23:56:26.993Z,5.23
2022-12-08T23:58:57.574Z,12.30
